Time;durP1;ratioP1;P1;durP2;ratioP2;P2;SDS_P1;SDS_P2;PMS_P1;PMS_P2;Temp;Humidity;BMP_temperature;BMP_pressure;BME280_temperature;BME280_humidity;BME280_pressure;Samples;Min_cycle;Max_cycle;Signal;HPM_P1;HPM_P2
2023/07/17 00:01:16;;;;;;;5.47;2.40;;;;;;;;;;4978066;28;20101;-86
2023/07/17 00:03:41;;;;;;;8.32;2.53;;;;;;;;;;4967450;28;20588;-85
2023/07/17 00:06:07;;;;;;;2.72;1.95;;;;;;;;;;4973278;28;20018;-85
2023/07/17 00:08:32;;;;;;;7.55;2.40;;;;;;;;;;4975377;28;20054;-86
2023/07/17 00:11:09;;;;;;;4.53;2.22;;;;;;;;;;4961090;28;20031;-86
2023/07/17 00:13:35;;;;;;;4.05;2.38;;;;;;;;;;4950840;29;20046;-87
2023/07/17 00:16:00;;;;;;;6.60;2.40;;;;;;;;;;4976404;28;20050;-86
2023/07/17 00:18:26;;;;;;;5.47;2.20;;;;;;;;;;4963535;28;20019;-87
2023/07/17 00:20:51;;;;;;;4.35;2.30;;;;;;;;;;4982864;28;20031;-85
2023/07/17 00:23:16;;;;;;;5.00;2.63;;;;;;;;;;4962808;28;20023;-86
2023/07/17 00:25:41;;;;;;;2.58;2.33;;;;;;;;;;4971823;28;20023;-86
2023/07/17 00:31:30;;;;;;;3.50;2.00;;;;;;;;;;4897343;28;20044;-85
2023/07/17 00:33:55;;;;;;;6.18;2.42;;;;;;;;;;4977677;28;20413;-85
2023/07/17 00:36:21;;;;;;;3.92;2.40;;;;;;;;;;4966260;28;20035;-85
2023/07/17 00:38:46;;;;;;;4.28;2.60;;;;;;;;;;4968465;28;20066;-85
2023/07/17 00:41:11;;;;;;;6.72;2.20;;;;;;;;;;4946408;28;20130;-85
2023/07/17 00:43:36;;;;;;;7.18;2.20;;;;;;;;;;4971865;28;20346;-85
2023/07/17 00:46:03;;;;;;;10.38;2.70;;;;;;;;;;4970438;28;20466;-86
2023/07/17 00:48:29;;;;;;;7.82;2.13;;;;;;;;;;4969265;28;20040;-86
2023/07/17 00:50:54;;;;;;;6.88;2.50;;;;;;;;;;4952434;28;20038;-86
2023/07/17 00:53:19;;;;;;;4.47;2.47;;;;;;;;;;4976763;28;20050;-85
2023/07/17 00:55:45;;;;;;;3.88;2.25;;;;;;;;;;4959433;28;20022;-85
2023/07/17 00:58:10;;;;;;;5.43;2.25;;;;;;;;;;4985040;28;20498;-86
2023/07/17 01:00:36;;;;;;;5.85;2.50;;;;;;;;;;4964561;28;20030;-86
2023/07/17 01:03:03;;;;;;;4.65;2.22;;;;;;;;;;4976174;28;20085;-87
2023/07/17 01:05:47;;;;;;;4.32;2.08;;;;;;;;;;4959774;28;20031;-86
2023/07/17 01:08:14;;;;;;;4.05;2.03;;;;;;;;;;4970149;28;20027;-86
2023/07/17 01:10:40;;;;;;;6.50;2.30;;;;;;;;;;4967685;28;20034;-85
2023/07/17 01:17:23;;;;;;;3.00;1.90;;;;;;;;;;4985290;28;20037;-86
2023/07/17 01:19:48;;;;;;;5.35;2.08;;;;;;;;;;4960599;28;20014;-86
2023/07/17 01:22:49;;;;;;;3.53;1.92;;;;;;;;;;4971250;28;20421;-86
2023/07/17 01:25:14;;;;;;;4.00;2.38;;;;;;;;;;4969384;28;20086;-87
2023/07/17 01:27:40;;;;;;;2.20;1.90;;;;;;;;;;4970662;28;20019;-85
2023/07/17 01:30:06;;;;;;;4.40;2.28;;;;;;;;;;4973360;28;20380;-84
2023/07/17 01:32:31;;;;;;;4.18;2.03;;;;;;;;;;4977809;28;20033;-84
2023/07/17 01:34:56;;;;;;;6.57;2.28;;;;;;;;;;4961481;28;20031;-84
2023/07/17 01:37:22;;;;;;;7.78;2.20;;;;;;;;;;4959823;28;20150;-85
2023/07/17 01:39:47;;;;;;;7.88;2.45;;;;;;;;;;4953712;28;20025;-84
2023/07/17 01:42:13;;;;;;;2.92;1.58;;;;;;;;;;4955861;28;20118;-85
2023/07/17 01:44:38;;;;;;;7.13;2.00;;;;;;;;;;4981748;28;20414;-84
2023/07/17 01:47:04;;;;;;;3.35;1.67;;;;;;;;;;4975256;28;20074;-85
2023/07/17 01:49:29;;;;;;;3.65;1.67;;;;;;;;;;4981063;28;20042;-85
2023/07/17 01:51:55;;;;;;;3.30;1.98;;;;;;;;;;4941042;28;20547;-85
2023/07/17 01:54:20;;;;;;;3.38;1.88;;;;;;;;;;4974986;28;20488;-85
2023/07/17 01:56:45;;;;;;;4.25;2.00;;;;;;;;;;4959452;28;20035;-85
2023/07/17 01:59:13;;;;;;;3.33;1.80;;;;;;;;;;4946091;29;20094;-85
2023/07/17 02:01:39;;;;;;;4.15;1.65;;;;;;;;;;4972543;28;20070;-84
2023/07/17 02:04:05;;;;;;;2.80;1.55;;;;;;;;;;4961605;28;20449;-84
2023/07/17 02:06:30;;;;;;;5.80;1.90;;;;;;;;;;4974893;28;20109;-84
2023/07/17 02:08:56;;;;;;;4.05;1.70;;;;;;;;;;4949239;28;20055;-85
2023/07/17 02:11:22;;;;;;;2.45;1.75;;;;;;;;;;4963049;28;20388;-85
2023/07/17 02:13:47;;;;;;;2.33;2.13;;;;;;;;;;4975454;28;20073;-85
2023/07/17 02:16:13;;;;;;;5.25;1.98;;;;;;;;;;4963951;28;20023;-86
2023/07/17 02:18:38;;;;;;;5.75;1.60;;;;;;;;;;4978141;28;20053;-86
2023/07/17 02:21:04;;;;;;;3.35;1.98;;;;;;;;;;4966585;28;20034;-85
2023/07/17 02:23:30;;;;;;;3.92;1.83;;;;;;;;;;4963713;28;20029;-85
2023/07/17 02:25:55;;;;;;;6.47;2.05;;;;;;;;;;4963557;28;20027;-85
2023/07/17 02:28:20;;;;;;;4.72;2.03;;;;;;;;;;4976010;28;20019;-85
2023/07/17 02:30:46;;;;;;;6.05;2.10;;;;;;;;;;4955571;29;20031;-85
2023/07/17 02:33:11;;;;;;;2.42;1.73;;;;;;;;;;4963192;28;20029;-85
2023/07/17 02:35:36;;;;;;;3.88;1.73;;;;;;;;;;4986430;28;20058;-85
2023/07/17 02:38:02;;;;;;;4.32;1.83;;;;;;;;;;4984645;28;20022;-86
2023/07/17 02:40:28;;;;;;;4.63;1.77;;;;;;;;;;4961093;28;20031;-85
2023/07/17 02:42:53;;;;;;;6.22;2.03;;;;;;;;;;4985990;28;20054;-84
2023/07/17 02:45:18;;;;;;;4.15;1.80;;;;;;;;;;4988194;28;20046;-85
2023/07/17 02:47:43;;;;;;;2.53;1.73;;;;;;;;;;4996390;28;20468;-86
2023/07/17 02:50:09;;;;;;;3.08;2.00;;;;;;;;;;4977503;28;20124;-86
2023/07/17 02:52:36;;;;;;;2.72;2.00;;;;;;;;;;4977863;28;20093;-85
2023/07/17 02:55:04;;;;;;;3.47;2.30;;;;;;;;;;4985373;28;20088;-85
2023/07/17 02:57:34;;;;;;;5.60;1.92;;;;;;;;;;4969064;28;20027;-85
2023/07/17 02:59:59;;;;;;;7.78;2.20;;;;;;;;;;4987051;28;20031;-85
2023/07/17 03:02:24;;;;;;;4.30;2.08;;;;;;;;;;4957836;29;20126;-85
2023/07/17 03:04:50;;;;;;;4.82;2.13;;;;;;;;;;4979093;28;20059;-85
2023/07/17 03:07:15;;;;;;;3.67;1.88;;;;;;;;;;4977803;28;20026;-85
2023/07/17 03:09:41;;;;;;;2.38;1.70;;;;;;;;;;4978428;28;20026;-86
2023/07/17 03:12:06;;;;;;;3.60;1.88;;;;;;;;;;4978766;28;20070;-85
2023/07/17 03:14:32;;;;;;;2.58;1.90;;;;;;;;;;4957728;28;20510;-86
2023/07/17 03:16:57;;;;;;;4.20;2.20;;;;;;;;;;4989062;28;20031;-86
2023/07/17 03:19:22;;;;;;;3.88;2.00;;;;;;;;;;4983818;28;20029;-85
2023/07/17 03:21:48;;;;;;;3.85;2.05;;;;;;;;;;4990604;28;20014;-85
2023/07/17 03:24:13;;;;;;;3.17;1.98;;;;;;;;;;4989952;28;20022;-85
2023/07/17 03:26:38;;;;;;;6.15;2.15;;;;;;;;;;4980590;28;20027;-85
2023/07/17 03:29:04;;;;;;;6.72;2.10;;;;;;;;;;4977739;28;20060;-85
2023/07/17 03:31:29;;;;;;;7.00;2.58;;;;;;;;;;4969943;28;20448;-85
2023/07/17 03:33:55;;;;;;;9.13;2.33;;;;;;;;;;4953710;28;20548;-86
2023/07/17 03:36:20;;;;;;;5.47;1.92;;;;;;;;;;4982265;28;20468;-86
2023/07/17 03:38:45;;;;;;;4.60;2.20;;;;;;;;;;4967939;28;20474;-86
2023/07/17 03:41:11;;;;;;;5.93;2.20;;;;;;;;;;4992532;28;20417;-87
2023/07/17 03:43:36;;;;;;;4.10;2.13;;;;;;;;;;4990799;28;20377;-86
2023/07/17 03:46:02;;;;;;;6.60;2.08;;;;;;;;;;4989616;28;20030;-86
2023/07/17 03:48:27;;;;;;;5.68;2.15;;;;;;;;;;4973771;28;20210;-87
2023/07/17 03:50:52;;;;;;;3.45;2.00;;;;;;;;;;4981068;28;20023;-86
2023/07/17 03:53:17;;;;;;;3.75;2.38;;;;;;;;;;4959562;28;20027;-87
2023/07/17 03:55:43;;;;;;;8.77;2.08;;;;;;;;;;4950226;29;20027;-86
2023/07/17 03:58:08;;;;;;;7.07;2.40;;;;;;;;;;4984539;28;20038;-86
2023/07/17 04:00:34;;;;;;;3.55;1.80;;;;;;;;;;4972995;28;20044;-88
2023/07/17 04:02:59;;;;;;;5.10;2.08;;;;;;;;;;4975415;28;20018;-86
2023/07/17 04:05:24;;;;;;;4.03;2.10;;;;;;;;;;4984627;28;20556;-86
2023/07/17 04:07:50;;;;;;;5.88;2.20;;;;;;;;;;4958917;28;20374;-86
2023/07/17 04:10:16;;;;;;;8.35;2.10;;;;;;;;;;4984297;28;20030;-86
2023/07/17 04:12:42;;;;;;;3.50;2.15;;;;;;;;;;4979459;28;20062;-86
2023/07/17 04:15:08;;;;;;;4.72;1.90;;;;;;;;;;4984975;28;20022;-86
2023/07/17 04:17:33;;;;;;;5.50;2.28;;;;;;;;;;4957661;28;20053;-86
2023/07/17 04:19:58;;;;;;;5.63;2.45;;;;;;;;;;4983996;28;20054;-86
2023/07/17 04:22:24;;;;;;;2.90;2.15;;;;;;;;;;4982463;28;20022;-86
2023/07/17 04:24:49;;;;;;;4.80;2.40;;;;;;;;;;4978530;28;20082;-86
2023/07/17 04:27:14;;;;;;;3.95;2.10;;;;;;;;;;4959698;28;20132;-87
2023/07/17 04:29:40;;;;;;;3.80;2.08;;;;;;;;;;4951738;28;20065;-85
2023/07/17 04:32:05;;;;;;;3.75;1.85;;;;;;;;;;4978111;28;20034;-86
2023/07/17 04:34:31;;;;;;;6.72;2.17;;;;;;;;;;4962145;28;20027;-86
2023/07/17 04:36:57;;;;;;;7.07;2.28;;;;;;;;;;4947391;29;20023;-86
2023/07/17 04:39:22;;;;;;;3.45;2.03;;;;;;;;;;4959104;28;20125;-86
2023/07/17 04:41:49;;;;;;;5.15;2.25;;;;;;;;;;4960368;28;20050;-86
2023/07/17 04:44:14;;;;;;;7.07;2.50;;;;;;;;;;4975723;28;20026;-86
2023/07/17 04:46:39;;;;;;;6.68;2.47;;;;;;;;;;4974802;28;20049;-87
2023/07/17 04:49:05;;;;;;;4.07;2.65;;;;;;;;;;4956310;28;20079;-87
2023/07/17 04:51:30;;;;;;;5.00;2.40;;;;;;;;;;4983767;28;20078;-85
2023/07/17 04:53:56;;;;;;;6.50;2.53;;;;;;;;;;4990041;28;20082;-86
2023/07/17 04:56:21;;;;;;;6.13;2.72;;;;;;;;;;4969149;28;20078;-86
2023/07/17 04:58:46;;;;;;;6.47;2.20;;;;;;;;;;4957087;29;20501;-86
2023/07/17 05:01:12;;;;;;;5.32;3.13;;;;;;;;;;5000488;28;20105;-86
2023/07/17 05:03:37;;;;;;;4.30;2.22;;;;;;;;;;4966412;29;20031;-85
2023/07/17 05:06:03;;;;;;;3.50;1.83;;;;;;;;;;4972884;28;20054;-86
2023/07/17 05:08:28;;;;;;;3.80;2.00;;;;;;;;;;4983587;28;20025;-87
2023/07/17 05:10:54;;;;;;;5.95;2.00;;;;;;;;;;4985959;28;20034;-86
2023/07/17 05:13:19;;;;;;;9.57;2.42;;;;;;;;;;4975662;28;20027;-86
2023/07/17 05:15:44;;;;;;;7.55;2.83;;;;;;;;;;4973885;28;20030;-86
2023/07/17 05:18:10;;;;;;;6.80;2.75;;;;;;;;;;4989664;28;20130;-85
2023/07/17 05:20:35;;;;;;;8.60;2.63;;;;;;;;;;4991234;28;20023;-86
2023/07/17 05:23:00;;;;;;;3.53;2.20;;;;;;;;;;4972368;28;20078;-86
2023/07/17 05:25:26;;;;;;;5.40;2.60;;;;;;;;;;4978823;28;20027;-86
2023/07/17 05:27:51;;;;;;;6.32;2.38;;;;;;;;;;4962723;28;20037;-87
2023/07/17 05:30:16;;;;;;;4.72;2.50;;;;;;;;;;4980419;28;20386;-85
2023/07/17 05:32:42;;;;;;;5.93;2.63;;;;;;;;;;4976967;28;20070;-87
2023/07/17 05:35:07;;;;;;;6.97;2.90;;;;;;;;;;4966859;28;20029;-86
2023/07/17 05:37:33;;;;;;;5.95;2.38;;;;;;;;;;4971307;28;20022;-86
2023/07/17 05:39:58;;;;;;;6.18;2.80;;;;;;;;;;4996234;28;20366;-86
2023/07/17 05:42:24;;;;;;;8.25;2.75;;;;;;;;;;4993551;28;20081;-86
2023/07/17 05:44:49;;;;;;;10.88;2.70;;;;;;;;;;4960220;28;20037;-86
2023/07/17 05:47:14;;;;;;;9.45;2.92;;;;;;;;;;4961291;28;20031;-86
2023/07/17 05:49:40;;;;;;;7.45;2.70;;;;;;;;;;4962147;28;20026;-86
2023/07/17 05:52:05;;;;;;;9.13;2.88;;;;;;;;;;4979401;28;20042;-86
2023/07/17 05:54:30;;;;;;;9.48;3.17;;;;;;;;;;4962318;28;20030;-86
2023/07/17 05:56:56;;;;;;;5.47;2.78;;;;;;;;;;4979618;28;20030;-85
2023/07/17 05:59:21;;;;;;;7.85;2.72;;;;;;;;;;4978043;28;20031;-86
2023/07/17 06:01:46;;;;;;;12.02;3.13;;;;;;;;;;4962827;28;20027;-86
2023/07/17 06:04:12;;;;;;;6.00;2.72;;;;;;;;;;4992022;28;20018;-86
2023/07/17 06:06:37;;;;;;;4.95;2.63;;;;;;;;;;4975101;28;20030;-86
2023/07/17 06:09:03;;;;;;;6.68;2.90;;;;;;;;;;4960127;28;20018;-86
2023/07/17 06:11:28;;;;;;;7.72;2.72;;;;;;;;;;4960929;28;20366;-85
2023/07/17 06:13:53;;;;;;;3.85;2.20;;;;;;;;;;4960275;28;20043;-86
2023/07/17 06:16:19;;;;;;;2.38;1.80;;;;;;;;;;4978983;28;20608;-85
2023/07/17 06:18:44;;;;;;;3.88;1.90;;;;;;;;;;4979017;28;20042;-87
2023/07/17 06:21:10;;;;;;;6.53;2.30;;;;;;;;;;4979189;28;20034;-85
2023/07/17 06:23:35;;;;;;;4.30;2.15;;;;;;;;;;4980319;28;20030;-85
2023/07/17 06:26:01;;;;;;;7.93;2.42;;;;;;;;;;4998131;28;20037;-85
2023/07/17 06:28:28;;;;;;;9.85;2.33;;;;;;;;;;4982054;28;20039;-86
2023/07/17 06:30:53;;;;;;;6.32;2.35;;;;;;;;;;4977264;28;20023;-85
2023/07/17 06:33:19;;;;;;;5.68;2.25;;;;;;;;;;4963047;28;20091;-85
2023/07/17 06:35:44;;;;;;;4.82;2.05;;;;;;;;;;4990153;28;20027;-87
2023/07/17 06:38:10;;;;;;;5.85;2.50;;;;;;;;;;4982267;28;20038;-85
2023/07/17 06:40:37;;;;;;;14.43;2.30;;;;;;;;;;4981856;28;20034;-85
2023/07/17 06:43:02;;;;;;;5.53;2.15;;;;;;;;;;4963457;28;20396;-85
2023/07/17 06:45:28;;;;;;;4.88;1.98;;;;;;;;;;4981015;28;20473;-86
2023/07/17 06:47:53;;;;;;;3.75;2.17;;;;;;;;;;4980838;28;20022;-86
2023/07/17 06:50:18;;;;;;;6.32;2.40;;;;;;;;;;4962078;28;20500;-85
2023/07/17 06:52:44;;;;;;;10.02;2.50;;;;;;;;;;4981548;28;20058;-86
2023/07/17 06:55:09;;;;;;;4.90;2.45;;;;;;;;;;4998103;28;20035;-86
2023/07/17 06:57:35;;;;;;;5.05;2.20;;;;;;;;;;4991987;28;20030;-86
2023/07/17 07:00:00;;;;;;;4.53;2.20;;;;;;;;;;4990511;28;20022;-86
2023/07/17 07:02:25;;;;;;;5.60;2.10;;;;;;;;;;4971719;28;20030;-86
2023/07/17 07:04:51;;;;;;;3.33;2.15;;;;;;;;;;4966614;29;20031;-86
2023/07/17 07:07:16;;;;;;;4.75;2.58;;;;;;;;;;4943130;29;20027;-86
2023/07/17 07:09:41;;;;;;;4.85;2.30;;;;;;;;;;4959296;29;20438;-85
2023/07/17 07:12:07;;;;;;;5.00;2.30;;;;;;;;;;4959999;29;20027;-86
2023/07/17 07:14:33;;;;;;;4.93;2.58;;;;;;;;;;4942564;29;20061;-85
2023/07/17 07:16:58;;;;;;;7.80;3.03;;;;;;;;;;4957994;29;20051;-85
2023/07/17 07:19:24;;;;;;;7.90;2.88;;;;;;;;;;4961150;28;20023;-85
2023/07/17 07:21:49;;;;;;;5.07;2.55;;;;;;;;;;4958438;29;20027;-85
2023/07/17 07:24:15;;;;;;;5.57;2.63;;;;;;;;;;4943046;29;20062;-87
2023/07/17 07:26:40;;;;;;;6.50;2.80;;;;;;;;;;4959764;29;20434;-86
2023/07/17 07:29:05;;;;;;;3.83;2.55;;;;;;;;;;4966673;28;20027;-86
2023/07/17 07:31:31;;;;;;;6.75;3.08;;;;;;;;;;4961381;28;20077;-86
2023/07/17 07:33:56;;;;;;;7.03;3.25;;;;;;;;;;4991569;28;20357;-86
2023/07/17 07:36:22;;;;;;;5.22;2.58;;;;;;;;;;4980020;28;20027;-86
2023/07/17 07:38:48;;;;;;;3.88;2.67;;;;;;;;;;4978034;28;20385;-86
2023/07/17 07:41:17;;;;;;;4.03;2.78;;;;;;;;;;4978378;28;20026;-88
2023/07/17 07:43:43;;;;;;;8.15;3.08;;;;;;;;;;4956907;28;20046;-86
2023/07/17 07:46:09;;;;;;;6.55;2.92;;;;;;;;;;4963588;28;20085;-87
2023/07/17 07:48:34;;;;;;;4.50;2.92;;;;;;;;;;4983212;28;20081;-86
2023/07/17 07:50:59;;;;;;;5.85;2.97;;;;;;;;;;4985962;28;20027;-88
2023/07/17 07:53:25;;;;;;;6.38;3.05;;;;;;;;;;4963090;28;20070;-87
2023/07/17 07:55:50;;;;;;;4.82;2.90;;;;;;;;;;4987151;28;20015;-87
2023/07/17 07:58:15;;;;;;;5.15;3.00;;;;;;;;;;4974663;28;20050;-87
2023/07/17 08:00:47;;;;;;;7.00;3.33;;;;;;;;;;4967933;28;20038;-87
2023/07/17 08:03:15;;;;;;;;;;;;;;;;;;4962336;28;20030;-88
2023/07/17 08:05:41;;;;;;;7.70;2.70;;;;;;;;;;4970562;28;19917;-86
2023/07/17 08:08:06;;;;;;;7.45;3.35;;;;;;;;;;4984243;28;20035;-88
2023/07/17 08:10:31;;;;;;;5.53;2.60;;;;;;;;;;4964524;28;20027;-86
2023/07/17 08:12:59;;;;;;;8.48;2.72;;;;;;;;;;4968974;28;20039;-88
2023/07/17 08:15:24;;;;;;;6.80;3.08;;;;;;;;;;4962918;28;20037;-89
2023/07/17 08:17:49;;;;;;;4.70;2.88;;;;;;;;;;4963540;28;20031;-87
2023/07/17 08:20:15;;;;;;;5.82;2.80;;;;;;;;;;4971953;28;20042;-88
2023/07/17 08:22:40;;;;;;;5.03;2.92;;;;;;;;;;4986498;28;20643;-87
2023/07/17 08:25:07;;;;;;;8.10;3.03;;;;;;;;;;4973313;28;20038;-87
2023/07/17 08:27:32;;;;;;;6.95;2.55;;;;;;;;;;4958635;28;20069;-88
2023/07/17 08:29:57;;;;;;;11.38;3.15;;;;;;;;;;4993188;28;20024;-88
2023/07/17 08:32:23;;;;;;;5.38;3.17;;;;;;;;;;4977279;28;20054;-87
2023/07/17 08:34:48;;;;;;;5.35;2.85;;;;;;;;;;4970457;28;20078;-86
2023/07/17 08:37:13;;;;;;;6.15;3.00;;;;;;;;;;4980743;28;20031;-87
2023/07/17 08:39:39;;;;;;;4.50;2.88;;;;;;;;;;4961471;28;20093;-87
2023/07/17 08:42:06;;;;;;;4.95;2.92;;;;;;;;;;4959127;28;20050;-87
2023/07/17 08:44:31;;;;;;;8.32;3.25;;;;;;;;;;4961855;28;20031;-86
2023/07/17 08:46:58;;;;;;;5.88;2.80;;;;;;;;;;4978766;28;20516;-86
2023/07/17 08:49:25;;;;;;;5.72;3.17;;;;;;;;;;4959596;28;20018;-86
2023/07/17 08:51:52;;;;;;;7.90;2.78;;;;;;;;;;4980515;28;20038;-88
2023/07/17 08:54:17;;;;;;;7.05;2.90;;;;;;;;;;4979621;28;20055;-87
2023/07/17 08:56:44;;;;;;;5.90;2.83;;;;;;;;;;4979038;28;20418;-86
2023/07/17 08:59:10;;;;;;;5.72;2.95;;;;;;;;;;4980210;28;20034;-87
2023/07/17 09:01:36;;;;;;;6.53;2.92;;;;;;;;;;4987716;28;20026;-87
2023/07/17 09:04:06;;;;;;;5.13;2.95;;;;;;;;;;4987997;28;20543;-86
2023/07/17 09:06:32;;;;;;;4.95;2.92;;;;;;;;;;4973701;28;20038;-85
2023/07/17 09:08:57;;;;;;;7.32;2.83;;;;;;;;;;4993825;28;20457;-86
2023/07/17 09:11:22;;;;;;;4.25;2.63;;;;;;;;;;4998602;28;20022;-86
2023/07/17 09:13:49;;;;;;;5.78;2.88;;;;;;;;;;4959847;28;20111;-87
2023/07/17 09:16:18;;;;;;;7.95;2.80;;;;;;;;;;4982550;28;20042;-86
2023/07/17 09:18:47;;;;;;;5.68;2.95;;;;;;;;;;4967178;28;20027;-86
2023/07/17 09:21:15;;;;;;;10.07;3.28;;;;;;;;;;4969335;28;20058;-86
2023/07/17 09:23:44;;;;;;;8.73;2.92;;;;;;;;;;4960987;28;20158;-86
2023/07/17 09:26:10;;;;;;;5.10;2.80;;;;;;;;;;4978257;28;20041;-86
2023/07/17 09:28:37;;;;;;;6.47;2.72;;;;;;;;;;4984455;28;20027;-87
2023/07/17 09:31:03;;;;;;;5.68;2.75;;;;;;;;;;4960048;28;20398;-87
2023/07/17 09:33:29;;;;;;;5.38;2.60;;;;;;;;;;4977097;28;20127;-86
2023/07/17 09:35:58;;;;;;;4.45;3.05;;;;;;;;;;4959744;28;20030;-87
2023/07/17 09:38:26;;;;;;;5.05;2.80;;;;;;;;;;4962653;28;20022;-87
2023/07/17 09:40:52;;;;;;;5.95;2.97;;;;;;;;;;4983919;28;20035;-88
2023/07/17 09:43:30;;;;;;;7.22;3.35;;;;;;;;;;4973628;28;20030;-86
2023/07/17 09:46:00;;;;;;;5.50;3.13;;;;;;;;;;4984499;28;20086;-87
2023/07/17 09:48:26;;;;;;;4.60;2.67;;;;;;;;;;4969964;28;20026;-86
2023/07/17 09:50:52;;;;;;;4.93;2.80;;;;;;;;;;4978401;28;20026;-87
2023/07/17 09:53:19;;;;;;;8.70;3.20;;;;;;;;;;4974305;28;20052;-87
2023/07/17 09:55:46;;;;;;;4.43;3.13;;;;;;;;;;4994539;28;20019;-85
2023/07/17 09:58:13;;;;;;;5.20;3.20;;;;;;;;;;4974455;28;20027;-86
2023/07/17 10:00:40;;;;;;;4.20;2.83;;;;;;;;;;4978309;28;20392;-85
2023/07/17 10:03:10;;;;;;;5.05;3.05;;;;;;;;;;4984473;28;20025;-85
2023/07/17 10:05:38;;;;;;;5.82;3.03;;;;;;;;;;4959355;28;20054;-86
2023/07/17 10:08:07;;;;;;;5.57;3.03;;;;;;;;;;4951415;28;20174;-86
2023/07/17 10:10:32;;;;;;;5.20;2.90;;;;;;;;;;4974658;28;20323;-86
2023/07/17 10:12:58;;;;;;;9.05;3.25;;;;;;;;;;4987171;28;20027;-85
2023/07/17 10:15:24;;;;;;;8.40;3.30;;;;;;;;;;4988959;28;20086;-87
2023/07/17 10:17:57;;;;;;;7.03;3.10;;;;;;;;;;4957680;28;20058;-87
2023/07/17 10:20:23;;;;;;;4.40;2.72;;;;;;;;;;4965816;28;20039;-87
2023/07/17 10:22:49;;;;;;;7.25;3.10;;;;;;;;;;4964963;28;20028;-86
2023/07/17 10:25:17;;;;;;;6.40;3.75;;;;;;;;;;4965543;29;20031;-86
2023/07/17 10:27:57;;;;;;;6.40;3.22;;;;;;;;;;4977692;28;20030;-85
2023/07/17 10:30:24;;;;;;;6.32;3.22;;;;;;;;;;4975331;28;20018;-85
2023/07/17 10:33:01;;;;;;;5.18;3.40;;;;;;;;;;4963544;28;20104;-86
2023/07/17 10:35:31;;;;;;;8.63;3.30;;;;;;;;;;4950748;29;20041;-85
2023/07/17 10:38:08;;;;;;;7.25;3.13;;;;;;;;;;4975874;28;20038;-86
2023/07/17 10:40:34;;;;;;;6.28;3.53;;;;;;;;;;4967824;28;20105;-86
2023/07/17 10:43:11;;;;;;;5.20;2.90;;;;;;;;;;4964658;28;20100;-85
2023/07/17 10:45:37;;;;;;;5.07;2.97;;;;;;;;;;4976806;28;20110;-85
2023/07/17 10:48:04;;;;;;;8.68;3.17;;;;;;;;;;4974426;28;20131;-85
2023/07/17 10:50:29;;;;;;;7.57;3.30;;;;;;;;;;4975016;28;20033;-85
2023/07/17 10:53:03;;;;;;;9.80;3.60;;;;;;;;;;4990388;28;20058;-86
2023/07/17 10:55:30;;;;;;;9.85;4.57;;;;;;;;;;4991678;28;20428;-85
2023/07/17 10:57:57;;;;;;;6.53;3.30;;;;;;;;;;4960231;29;20031;-85
2023/07/17 11:00:22;;;;;;;6.20;3.70;;;;;;;;;;4957579;28;20029;-85
2023/07/17 11:02:48;;;;;;;9.27;3.33;;;;;;;;;;4969565;28;20066;-85
2023/07/17 11:05:13;;;;;;;5.88;3.33;;;;;;;;;;4954865;28;20035;-86
2023/07/17 11:07:39;;;;;;;7.30;3.30;;;;;;;;;;4962415;28;20118;-85
2023/07/17 11:10:11;;;;;;;5.65;3.33;;;;;;;;;;4970940;28;20053;-86
2023/07/17 11:12:37;;;;;;;4.32;2.88;;;;;;;;;;4962333;28;20027;-86
2023/07/17 11:15:03;;;;;;;4.38;2.80;;;;;;;;;;4954355;28;20089;-84
2023/07/17 11:17:29;;;;;;;5.05;3.05;;;;;;;;;;4962341;28;20027;-85
2023/07/17 11:20:04;;;;;;;6.70;3.22;;;;;;;;;;4959537;28;20450;-86
2023/07/17 11:22:33;;;;;;;5.03;3.00;;;;;;;;;;4984051;28;20023;-85
2023/07/17 11:24:58;;;;;;;4.10;2.67;;;;;;;;;;4983813;28;20031;-85
2023/07/17 11:27:24;;;;;;;6.20;3.00;;;;;;;;;;4982834;28;20041;-85
2023/07/17 11:29:50;;;;;;;5.00;2.80;;;;;;;;;;4980506;28;20023;-85
2023/07/17 11:32:20;;;;;;;9.73;3.38;;;;;;;;;;4956508;28;20025;-86
2023/07/17 11:34:52;;;;;;;5.05;3.10;;;;;;;;;;4979035;28;20033;-84
2023/07/17 11:37:35;;;;;;;6.40;3.10;;;;;;;;;;4968728;28;20026;-86
2023/07/17 11:40:05;;;;;;;6.03;3.10;;;;;;;;;;4984362;28;20061;-85
2023/07/17 11:42:55;;;;;;;6.65;3.42;;;;;;;;;;4978748;28;20033;-85
2023/07/17 11:45:23;;;;;;;8.10;3.20;;;;;;;;;;4964099;29;20034;-86
2023/07/17 11:47:49;;;;;;;5.13;2.90;;;;;;;;;;4977511;28;20067;-85
2023/07/17 11:50:18;;;;;;;5.75;3.05;;;;;;;;;;4959294;28;20022;-85
2023/07/17 11:52:44;;;;;;;5.35;3.22;;;;;;;;;;4945679;28;20050;-85
2023/07/17 11:55:09;;;;;;;6.10;2.80;;;;;;;;;;4962673;28;20393;-86
2023/07/17 11:57:34;;;;;;;4.70;3.22;;;;;;;;;;4976239;28;20026;-85
2023/07/17 12:00:03;;;;;;;7.20;3.13;;;;;;;;;;4980007;28;20026;-85
2023/07/17 12:02:28;;;;;;;6.15;3.00;;;;;;;;;;4961835;28;20085;-86
2023/07/17 12:04:54;;;;;;;5.65;3.00;;;;;;;;;;4960969;28;20055;-85
2023/07/17 12:07:19;;;;;;;7.72;3.10;;;;;;;;;;4960177;28;20539;-87
2023/07/17 12:09:46;;;;;;;5.72;2.92;;;;;;;;;;4959577;28;20019;-85
2023/07/17 12:12:11;;;;;;;6.07;2.90;;;;;;;;;;4961619;28;20094;-86
2023/07/17 12:14:36;;;;;;;8.23;2.80;;;;;;;;;;4980562;28;20058;-85
2023/07/17 12:17:02;;;;;;;6.32;2.90;;;;;;;;;;4972844;28;20031;-85
2023/07/17 12:19:27;;;;;;;8.00;2.83;;;;;;;;;;4949254;28;20117;-87
2023/07/17 12:21:53;;;;;;;6.10;3.30;;;;;;;;;;4961147;28;20034;-86
2023/07/17 12:24:19;;;;;;;4.75;2.85;;;;;;;;;;4973854;28;20042;-86
2023/07/17 12:26:44;;;;;;;5.95;3.05;;;;;;;;;;4958255;28;20094;-86
2023/07/17 12:29:10;;;;;;;7.78;3.03;;;;;;;;;;4976849;28;20042;-85
2023/07/17 12:31:35;;;;;;;7.65;3.30;;;;;;;;;;4977794;28;20018;-85
2023/07/17 12:34:01;;;;;;;4.55;2.55;;;;;;;;;;4968980;28;20019;-85
2023/07/17 12:36:26;;;;;;;5.22;2.65;;;;;;;;;;4966816;28;20077;-85
2023/07/17 12:38:52;;;;;;;5.65;2.60;;;;;;;;;;4951752;29;20055;-85
2023/07/17 12:41:18;;;;;;;4.15;2.90;;;;;;;;;;4988456;28;20022;-86
2023/07/17 12:43:44;;;;;;;5.68;2.78;;;;;;;;;;5000590;28;20034;-86
2023/07/17 12:46:10;;;;;;;4.32;2.80;;;;;;;;;;4965626;28;20058;-85
2023/07/17 12:48:35;;;;;;;5.93;2.50;;;;;;;;;;4969944;29;20024;-85
2023/07/17 12:51:01;;;;;;;4.30;2.60;;;;;;;;;;4985982;28;20082;-85
2023/07/17 12:53:26;;;;;;;8.25;2.70;;;;;;;;;;4996182;28;20030;-84
2023/07/17 12:55:52;;;;;;;6.65;2.97;;;;;;;;;;4982490;28;20159;-85
2023/07/17 12:58:17;;;;;;;7.53;3.28;;;;;;;;;;5004450;28;20026;-86
2023/07/17 13:00:43;;;;;;;5.47;2.70;;;;;;;;;;4990817;28;20041;-85
2023/07/17 13:03:08;;;;;;;4.85;2.70;;;;;;;;;;4980691;28;20029;-87
2023/07/17 13:05:33;;;;;;;7.68;3.00;;;;;;;;;;4989775;28;20022;-87
2023/07/17 13:07:59;;;;;;;5.63;2.80;;;;;;;;;;4959014;28;20031;-86
2023/07/17 13:10:24;;;;;;;4.45;2.95;;;;;;;;;;4957485;29;20101;-85
2023/07/17 13:12:50;;;;;;;4.40;2.92;;;;;;;;;;4956071;28;20023;-86
2023/07/17 13:15:16;;;;;;;6.88;2.85;;;;;;;;;;4966430;28;20503;-86
2023/07/17 13:17:41;;;;;;;7.13;2.60;;;;;;;;;;4947434;29;20015;-87
2023/07/17 13:20:07;;;;;;;6.55;2.60;;;;;;;;;;4971572;28;20037;-86
2023/07/17 13:22:32;;;;;;;4.22;2.80;;;;;;;;;;4971884;28;20473;-85
2023/07/17 13:24:58;;;;;;;7.18;2.78;;;;;;;;;;4963714;28;20035;-87
2023/07/17 13:27:23;;;;;;;5.00;2.42;;;;;;;;;;4993990;28;20444;-86
2023/07/17 13:29:49;;;;;;;5.95;3.53;;;;;;;;;;4990095;28;20561;-85
2023/07/17 13:32:14;;;;;;;4.30;2.78;;;;;;;;;;4967385;28;20358;-86
2023/07/17 13:34:39;;;;;;;8.45;3.00;;;;;;;;;;4968392;28;20037;-85
2023/07/17 13:37:05;;;;;;;4.72;2.78;;;;;;;;;;4958627;28;20026;-86
2023/07/17 13:39:30;;;;;;;4.15;2.55;;;;;;;;;;4982398;28;20022;-86
2023/07/17 13:41:58;;;;;;;7.70;2.67;;;;;;;;;;4973897;28;20105;-86
2023/07/17 13:44:24;;;;;;;6.55;2.47;;;;;;;;;;4964215;28;20023;-86
2023/07/17 13:46:49;;;;;;;5.57;2.53;;;;;;;;;;4985429;28;20048;-86
2023/07/17 13:49:15;;;;;;;4.55;2.58;;;;;;;;;;4956095;28;20019;-86
2023/07/17 13:51:42;;;;;;;7.60;3.15;;;;;;;;;;4959585;28;20478;-85
2023/07/17 13:54:07;;;;;;;6.50;2.72;;;;;;;;;;4967086;28;20019;-85
2023/07/17 13:56:34;;;;;;;4.95;2.53;;;;;;;;;;4973175;28;20035;-84
2023/07/17 13:59:02;;;;;;;5.05;2.97;;;;;;;;;;4959959;28;20031;-84
2023/07/17 14:01:27;;;;;;;8.43;3.25;;;;;;;;;;4983220;28;20038;-84
2023/07/17 14:03:53;;;;;;;4.50;2.55;;;;;;;;;;4986518;28;20039;-85
2023/07/17 14:06:18;;;;;;;4.05;2.40;;;;;;;;;;4957024;29;20031;-85
2023/07/17 14:08:44;;;;;;;7.95;2.78;;;;;;;;;;4958520;28;20389;-86
2023/07/17 14:11:10;;;;;;;6.53;2.90;;;;;;;;;;4979873;28;20026;-86
2023/07/17 14:13:35;;;;;;;5.20;2.78;;;;;;;;;;4968433;28;20073;-85
2023/07/17 14:16:00;;;;;;;6.28;3.28;;;;;;;;;;4999490;28;20048;-84
2023/07/17 14:18:26;;;;;;;7.15;3.17;;;;;;;;;;4994085;28;20042;-85
2023/07/17 14:20:54;;;;;;;8.25;2.72;;;;;;;;;;4979005;28;20038;-85
2023/07/17 14:23:19;;;;;;;6.45;3.08;;;;;;;;;;4969859;28;20501;-85
2023/07/17 14:25:45;;;;;;;7.57;3.13;;;;;;;;;;4967219;28;20022;-85
2023/07/17 14:28:10;;;;;;;6.03;2.70;;;;;;;;;;4962035;28;20026;-85
2023/07/17 14:30:36;;;;;;;4.82;2.70;;;;;;;;;;4987015;28;20498;-86
2023/07/17 14:33:01;;;;;;;7.32;2.55;;;;;;;;;;4967239;28;20500;-85
2023/07/17 14:35:26;;;;;;;5.40;2.90;;;;;;;;;;4963704;28;20027;-86
2023/07/17 14:38:08;;;;;;;3.78;2.40;;;;;;;;;;4983145;28;20035;-86
2023/07/17 14:40:33;;;;;;;9.20;2.80;;;;;;;;;;4976689;28;20118;-86
2023/07/17 14:42:58;;;;;;;6.55;2.78;;;;;;;;;;4966652;28;20035;-85
2023/07/17 14:45:24;;;;;;;10.98;2.70;;;;;;;;;;4969715;28;20035;-85